Time;durP1;ratioP1;P1;durP2;ratioP2;P2;SDS_P1;SDS_P2;PMS_P1;PMS_P2;Temp;Humidity;BMP_temperature;BMP_pressure;BME280_temperature;BME280_humidity;BME280_pressure;Samples;Min_cycle;Max_cycle;Signal;HPM_P1;HPM_P2
2022/05/13 00:01:58;;;;;;;1.17;1.00;;;;;;;16.79;58.78;99975.03;5087825;28;20024;-83
2022/05/13 00:04:23;;;;;;;3.60;1.48;;;;;;;17.02;58.45;99997.31;5097078;28;20027;-84
2022/05/13 00:06:49;;;;;;;1.33;1.15;;;;;;;16.83;59.54;99987.28;5086843;28;20191;-83
2022/05/13 00:09:14;;;;;;;2.75;2.25;;;;;;;16.52;59.82;99971.56;5087976;28;20028;-84
2022/05/13 00:11:40;;;;;;;9.20;3.65;;;;;;;16.76;59.52;99993.78;5086459;28;20038;-83
2022/05/13 00:14:08;;;;;;;2.75;1.80;;;;;;;16.89;58.91;99993.38;5095281;28;20043;-83
2022/05/13 00:16:37;;;;;;;3.60;2.80;;;;;;;16.85;59.04;99992.56;5091695;28;20040;-84
2022/05/13 00:19:05;;;;;;;3.55;1.88;;;;;;;16.52;59.21;99976.88;5093369;28;20047;-83
2022/05/13 00:21:30;;;;;;;2.45;2.25;;;;;;;16.52;60.14;99979.53;5091188;28;20047;-83
2022/05/13 00:23:56;;;;;;;3.13;2.03;;;;;;;16.27;59.23;99983.03;5093378;28;20101;-82
2022/05/13 00:26:21;;;;;;;1.00;0.93;;;;;;;16.00;60.57;99990.16;5091154;28;20036;-83
2022/05/13 00:28:46;;;;;;;3.60;2.13;;;;;;;15.94;60.30;99969.06;5095542;28;20055;-83
2022/05/13 00:31:12;;;;;;;1.80;1.48;;;;;;;15.92;60.90;99982.41;5091667;28;20552;-83
2022/05/13 00:33:38;;;;;;;3.72;1.98;;;;;;;15.80;60.96;99956.25;5087264;28;20031;-83
2022/05/13 00:36:04;;;;;;;1.95;1.55;;;;;;;15.99;60.21;99950.28;5086763;28;20043;-83
2022/05/13 00:38:30;;;;;;;3.03;2.08;;;;;;;16.09;60.63;99983.66;5087909;28;20040;-83
2022/05/13 00:40:55;;;;;;;2.20;1.83;;;;;;;16.21;60.67;99985.91;5086991;28;20035;-83
2022/05/13 00:43:57;;;;;;;1.27;1.13;;;;;;;16.36;60.59;99996.94;5088052;28;20032;-83
2022/05/13 00:46:24;;;;;;;6.55;1.55;;;;;;;16.23;60.40;99968.09;5073198;28;20441;-83
2022/05/13 00:48:50;;;;;;;2.72;2.03;;;;;;;16.23;60.91;99973.41;5099854;28;20081;-83
2022/05/13 00:51:38;;;;;;;3.13;2.00;;;;;;;16.44;60.28;100010.91;5104383;28;20036;-83
2022/05/13 00:54:06;;;;;;;2.47;1.30;;;;;;;16.38;59.97;99992.47;5094665;28;20501;-83
2022/05/13 00:56:32;;;;;;;3.20;1.60;;;;;;;16.35;60.65;100000.56;5089177;28;20050;-82
2022/05/13 00:59:02;;;;;;;2.83;1.30;;;;;;;16.22;60.54;99960.16;5103042;28;20033;-83
2022/05/13 01:01:28;;;;;;;2.40;1.90;;;;;;;16.34;60.69;99978.38;5090890;28;20447;-83
2022/05/13 01:04:01;;;;;;;3.88;1.98;;;;;;;16.21;60.01;99974.41;5107735;28;20035;-83
2022/05/13 01:06:27;;;;;;;2.10;1.58;;;;;;;16.21;60.76;99971.75;5086785;28;20497;-83
2022/05/13 01:08:52;;;;;;;3.17;2.42;;;;;;;16.21;60.40;99993.91;5107078;28;20100;-82
2022/05/13 01:11:22;;;;;;;2.80;2.08;;;;;;;16.17;60.67;99994.91;5104704;28;20019;-83
2022/05/13 01:13:55;;;;;;;2.78;1.58;;;;;;;16.05;60.54;99963.38;5087626;28;20036;-83
2022/05/13 01:16:20;;;;;;;4.22;2.03;;;;;;;15.71;61.04;99936.09;5082565;28;20491;-83
2022/05/13 01:18:46;;;;;;;4.82;4.10;;;;;;;15.93;61.34;100002.78;5100579;28;20067;-83
2022/05/13 01:21:18;;;;;;;3.58;2.10;;;;;;;15.76;61.55;99983.81;5087074;28;20056;-83
2022/05/13 01:23:45;;;;;;;3.10;1.88;;;;;;;15.68;59.68;99953.94;5099462;28;20034;-83
2022/05/13 01:26:19;;;;;;;3.78;1.90;;;;;;;15.48;59.13;99934.16;5093389;28;20495;-83
2022/05/13 01:28:51;;;;;;;2.60;2.13;;;;;;;15.58;59.93;99986.16;5097413;28;20615;-82
2022/05/13 01:31:31;;;;;;;2.67;1.85;;;;;;;15.42;60.15;99971.56;5091078;28;20035;-83
2022/05/13 01:33:57;;;;;;;3.67;2.05;;;;;;;15.36;61.68;99963.78;5090665;28;20032;-82
2022/05/13 01:36:23;;;;;;;2.40;2.00;;;;;;;15.69;61.13;100001.75;5103384;28;20094;-83
2022/05/13 01:38:49;;;;;;;3.50;2.40;;;;;;;15.76;60.70;99992.66;5097917;28;20028;-83
2022/05/13 01:41:16;;;;;;;3.80;1.70;;;;;;;15.74;60.28;100001.63;5090617;28;20032;-83
2022/05/13 01:43:43;;;;;;;1.73;1.52;;;;;;;15.45;60.71;99976.78;5090846;28;20537;-83
2022/05/13 01:46:10;;;;;;;4.85;2.78;;;;;;;15.34;60.92;99981.56;5090771;28;20063;-83
2022/05/13 01:48:36;;;;;;;3.72;1.90;;;;;;;15.30;61.85;99995.84;5103074;28;20035;-83
2022/05/13 01:51:02;;;;;;;3.95;2.80;;;;;;;15.18;61.32;99946.59;5110916;28;20035;-83
2022/05/13 01:53:28;;;;;;;1.70;1.27;;;;;;;15.43;61.72;99989.28;5111190;28;20042;-83
2022/05/13 01:55:54;;;;;;;1.45;1.13;;;;;;;15.45;61.97;99979.44;5105982;28;20525;-83
2022/05/13 01:58:21;;;;;;;;;;;;;;;15.59;62.37;99992.31;5101453;28;20047;-83
2022/05/13 02:00:48;;;;;;;1.52;1.20;;;;;;;15.57;62.26;99973.75;5097134;28;20390;-83
2022/05/13 02:05:59;;;;;;;2.97;1.73;;;;;;;15.54;62.04;99963.22;5110870;28;20143;-83
2022/05/13 02:08:25;;;;;;;1.92;1.73;;;;;;;15.50;62.40;99964.22;5097077;28;20040;-82
2022/05/13 02:10:51;;;;;;;2.45;1.98;;;;;;;15.55;62.04;99962.31;5090506;28;20028;-83
2022/05/13 02:13:17;;;;;;;4.22;2.88;;;;;;;15.71;62.06;99972.47;5107867;28;20039;-82
2022/05/13 02:15:42;;;;;;;;;;;;;;;15.74;61.74;99996.28;5106351;28;20482;-83
2022/05/13 02:18:09;;;;;;;2.47;1.60;;;;;;;15.69;62.15;99992.88;5090355;28;19920;-83
2022/05/13 02:20:35;;;;;;;1.40;1.30;;;;;;;15.27;62.74;99921.53;5107072;28;20084;-83
2022/05/13 02:23:01;;;;;;;2.42;1.55;;;;;;;15.52;62.10;99953.53;5109829;28;20028;-83
2022/05/13 02:25:29;;;;;;;4.38;2.47;;;;;;;15.55;61.33;99953.44;5097328;28;20066;-83
2022/05/13 02:27:56;;;;;;;3.10;2.00;;;;;;;15.76;61.37;99983.81;5089821;28;20085;-82
2022/05/13 02:30:22;;;;;;;4.90;2.10;;;;;;;15.68;61.43;99986.72;5086696;28;20481;-82
2022/05/13 02:32:47;;;;;;;2.00;1.60;;;;;;;15.60;61.58;99994.06;5092922;28;20089;-83
2022/05/13 02:35:12;;;;;;;;;;;;;;;15.44;62.27;99995.44;5090002;28;20036;-83
2022/05/13 02:37:38;;;;;;;1.95;1.40;;;;;;;15.34;62.55;99971.81;5087797;28;20703;-83
2022/05/13 02:40:04;;;;;;;4.95;2.17;;;;;;;15.52;62.58;99996.06;5091445;28;20064;-83
2022/05/13 02:42:29;;;;;;;5.45;2.88;;;;;;;15.37;62.82;99970.84;5110039;28;20056;-83
2022/05/13 02:44:55;;;;;;;2.45;1.70;;;;;;;15.42;63.23;99992.84;5109852;28;20157;-82
2022/05/13 02:47:20;;;;;;;;;;;;;;;15.38;63.09;99994.72;5090852;28;20088;-83
2022/05/13 02:49:46;;;;;;;1.92;1.20;;;;;;;15.29;63.34;99989.69;5109485;28;19925;-83
2022/05/13 02:52:12;;;;;;;;;;;;;;;15.17;63.66;99993.56;5110494;28;20023;-82
2022/05/13 02:54:38;;;;;;;3.00;1.90;;;;;;;15.02;63.39;99947.03;5109758;28;19911;-82
2022/05/13 02:57:03;;;;;;;;;;;;;;;15.14;63.65;99996.31;5109437;28;20032;-82
2022/05/13 02:59:29;;;;;;;7.10;4.30;;;;;;;14.96;63.31;100002.16;5107842;28;20002;-80
2022/05/13 03:01:54;;;;;;;9.30;3.80;;;;;;;14.55;63.14;99958.97;5098472;28;20042;-80
2022/05/13 03:04:21;;;;;;;8.77;4.40;;;;;;;14.42;63.59;99966.41;5095354;28;20024;-82
2022/05/13 03:06:47;;;;;;;5.75;3.95;;;;;;;14.27;64.62;99981.81;5106159;28;20039;-86
2022/05/13 03:09:12;;;;;;;5.25;3.35;;;;;;;14.52;64.50;100015.69;5071301;28;20040;-88
2022/05/13 03:11:38;;;;;;;2.78;2.38;;;;;;;14.24;65.12;99952.72;5089729;28;20039;-86
2022/05/13 03:14:03;;;;;;;2.58;1.70;;;;;;;14.44;64.52;99994.66;5088761;28;20054;-84
2022/05/13 03:16:30;;;;;;;1.70;1.42;;;;;;;14.37;64.75;99978.94;5101440;28;20034;-88
2022/05/13 03:18:58;;;;;;;3.60;1.98;;;;;;;14.51;64.36;99972.34;5075071;28;20047;-93
2022/05/13 03:21:24;;;;;;;2.40;1.88;;;;;;;14.64;65.16;100033.09;5096463;28;20032;-92
2022/05/13 03:23:52;;;;;;;4.18;3.38;;;;;;;14.43;65.88;100007.97;5093052;28;20140;-94
2022/05/13 03:26:20;;;;;;;4.68;1.92;;;;;;;14.22;65.02;99966.94;5092516;28;20431;-88
2022/05/13 03:28:46;;;;;;;4.43;2.65;;;;;;;14.49;64.88;99999.84;5099923;28;20036;-91
2022/05/13 03:31:12;;;;;;;3.83;1.95;;;;;;;14.38;65.44;99980.66;5090816;28;20043;-92
2022/05/13 03:33:38;;;;;;;1.65;1.55;;;;;;;14.46;64.89;99990.16;5091028;28;20084;-90
2022/05/13 03:36:05;;;;;;;4.22;2.85;;;;;;;14.85;64.91;100035.19;5090123;28;20130;-82
2022/05/13 03:38:30;;;;;;;9.70;2.72;;;;;;;14.85;64.85;100031.66;5095522;28;20414;-83
2022/05/13 03:40:56;;;;;;;3.28;2.17;;;;;;;14.76;64.66;100016.84;5108632;28;20031;-83
2022/05/13 03:43:21;;;;;;;3.70;2.75;;;;;;;14.84;64.99;100013.97;5092686;28;20425;-81
2022/05/13 03:45:47;;;;;;;;;;;;;;;15.09;64.65;100045.16;5108330;28;20027;-84
2022/05/13 03:48:12;;;;;;;3.42;2.65;;;;;;;15.01;65.10;100014.41;5108530;28;20776;-85
2022/05/13 03:50:41;;;;;;;2.97;2.40;;;;;;;15.08;64.37;100016.88;5106607;28;20424;-84
2022/05/13 03:53:07;;;;;;;2.28;1.73;;;;;;;15.02;64.40;100021.44;5090074;28;20103;-86
2022/05/13 03:55:33;;;;;;;5.60;2.45;;;;;;;14.88;64.16;99997.03;5094892;28;20103;-84
2022/05/13 03:57:59;;;;;;;4.07;2.45;;;;;;;14.84;64.50;99988.31;5108044;28;20489;-85
2022/05/13 04:00:25;;;;;;;2.33;1.90;;;;;;;15.18;64.54;100029.84;5090732;28;20032;-86
2022/05/13 04:02:51;;;;;;;2.72;1.95;;;;;;;15.30;64.27;100015.31;5088129;28;20036;-85
2022/05/13 04:10:44;;;;;;;3.65;2.10;;;;;;;15.58;64.19;100034.00;5087376;28;20062;-85
2022/05/13 04:16:06;;;;;;;2.47;1.67;;;;;;;16.09;64.58;100067.00;5090192;28;20112;-84
2022/05/13 04:18:39;;;;;;;2.17;1.75;;;;;;;16.17;65.13;100050.78;5101282;28;20031;-83
2022/05/13 04:21:11;;;;;;;4.07;2.78;;;;;;;16.31;65.02;100068.97;5097766;28;20028;-81
2022/05/13 04:23:39;;;;;;;1.90;1.75;;;;;;;16.28;63.85;100030.03;5087384;28;20032;-81
2022/05/13 04:26:04;;;;;;;7.25;3.10;;;;;;;16.40;64.02;100026.09;5090600;28;20035;-83
2022/05/13 04:28:30;;;;;;;14.05;5.25;;;;;;;16.51;64.13;100067.47;5092542;28;20028;-84
2022/05/13 04:30:56;;;;;;;3.97;1.77;;;;;;;16.67;63.97;100054.47;5107502;28;20027;-83
2022/05/13 04:33:21;;;;;;;;;;;;;;;16.93;63.35;100073.16;5096632;28;20111;-83
2022/05/13 04:35:47;;;;;;;3.53;2.45;;;;;;;17.08;62.65;100070.84;5088265;28;19911;-83
2022/05/13 04:38:12;;;;;;;2.33;1.58;;;;;;;17.27;61.76;100085.28;5087205;28;20438;-83
2022/05/13 04:40:38;;;;;;;6.13;4.10;;;;;;;17.34;60.77;100065.44;5086243;28;20529;-83
2022/05/13 04:43:06;;;;;;;2.88;1.90;;;;;;;17.41;59.84;100039.44;5087313;28;20051;-84
2022/05/13 04:45:31;;;;;;;3.28;2.08;;;;;;;17.90;58.02;100076.69;5107316;28;20114;-84
2022/05/13 04:48:16;;;;;;;3.05;1.85;;;;;;;17.88;57.67;100042.06;5107683;28;20118;-84
2022/05/13 04:50:50;;;;;;;3.13;2.10;;;;;;;18.29;56.39;100065.38;5089198;28;20032;-83
2022/05/13 04:53:22;;;;;;;2.42;1.92;;;;;;;18.50;56.38;100078.75;5102715;28;20089;-82
2022/05/13 04:55:49;;;;;;;2.38;1.65;;;;;;;18.49;56.44;100044.97;5092619;28;20059;-83
2022/05/13 04:58:15;;;;;;;2.17;1.70;;;;;;;18.76;55.45;100057.16;5090213;28;20036;-83
2022/05/13 05:00:40;;;;;;;2.13;1.85;;;;;;;18.85;55.50;100025.66;5086560;28;20830;-82
2022/05/13 05:03:06;;;;;;;2.08;1.60;;;;;;;19.01;55.25;100073.97;5099095;28;20467;-81
2022/05/13 05:05:31;;;;;;;7.55;3.78;;;;;;;18.77;53.34;100025.97;5107571;28;20486;-82
2022/05/13 05:07:57;;;;;;;2.83;1.70;;;;;;;19.31;51.86;100069.06;5106650;28;20044;-83
2022/05/13 05:10:23;;;;;;;2.45;1.70;;;;;;;19.51;52.71;100049.44;5089385;28;20410;-81
2022/05/13 05:12:53;;;;;;;2.53;1.73;;;;;;;19.72;51.24;100054.69;5095315;28;20569;-82
2022/05/13 05:15:18;;;;;;;7.00;2.10;;;;;;;19.64;49.98;100041.69;5086307;28;20028;-82
2022/05/13 05:17:44;;;;;;;2.35;1.20;;;;;;;19.57;51.30;100040.22;5068460;28;20054;-81
2022/05/13 05:20:10;;;;;;;2.83;1.85;;;;;;;19.65;51.39;100044.28;5086482;28;20089;-82
2022/05/13 05:22:35;;;;;;;2.13;1.42;;;;;;;20.26;51.54;100070.88;5086645;28;20047;-82
2022/05/13 05:25:02;;;;;;;2.40;2.08;;;;;;;20.06;50.86;100061.16;5086117;28;20486;-82
2022/05/13 05:27:27;;;;;;;1.85;1.42;;;;;;;20.37;50.71;100042.63;5086670;28;20028;-82
2022/05/13 05:29:53;;;;;;;3.72;2.35;;;;;;;20.48;48.94;100046.56;5086355;28;20481;-83
2022/05/13 05:32:18;;;;;;;1.90;1.67;;;;;;;20.44;50.93;100039.66;5086385;28;20036;-84
2022/05/13 05:34:44;;;;;;;1.48;1.27;;;;;;;20.95;48.58;100013.81;5088057;28;20055;-82
2022/05/13 05:37:09;;;;;;;3.13;2.53;;;;;;;21.46;47.23;100079.00;5091620;28;20028;-82
2022/05/13 05:39:34;;;;;;;3.47;2.45;;;;;;;20.86;48.29;100044.63;5093545;28;20067;-82
2022/05/13 05:42:00;;;;;;;2.80;1.48;;;;;;;20.93;47.61;100059.47;5089306;28;20040;-82
2022/05/13 05:44:26;;;;;;;2.42;1.95;;;;;;;21.06;47.01;100051.63;5087643;28;20386;-83
2022/05/13 05:46:51;;;;;;;2.90;2.03;;;;;;;21.34;47.52;100043.94;5086257;28;20040;-82
2022/05/13 05:49:19;;;;;;;4.32;2.85;;;;;;;21.81;47.71;100075.34;5101700;28;20446;-81
2022/05/13 05:51:44;;;;;;;1.42;1.20;;;;;;;21.93;45.85;100042.44;5106553;28;20036;-82
2022/05/13 05:59:37;;;;;;;2.22;1.70;;;;;;;22.21;42.60;100051.63;5092137;28;20042;-82
2022/05/13 06:02:03;;;;;;;2.63;1.35;;;;;;;22.49;43.35;100055.41;5101679;28;20047;-82
2022/05/13 06:04:29;;;;;;;2.22;1.20;;;;;;;23.21;42.18;100061.00;5106453;28;20032;-83
2022/05/13 06:06:54;;;;;;;3.53;1.67;;;;;;;23.58;43.43;100070.31;5106298;28;20147;-83
2022/05/13 06:09:20;;;;;;;2.63;1.60;;;;;;;23.81;40.43;100045.59;5085969;28;20145;-82
2022/05/13 06:11:45;;;;;;;1.85;1.15;;;;;;;23.84;40.17;100086.69;5091724;28;20039;-81
2022/05/13 06:14:11;;;;;;;7.50;2.97;;;;;;;23.92;40.32;100051.16;5099573;28;20062;-82
2022/05/13 06:16:37;;;;;;;2.70;1.33;;;;;;;24.01;40.75;100060.50;5091599;28;20047;-82
2022/05/13 06:19:02;;;;;;;3.35;2.55;;;;;;;;;;5090938;28;20039;-81
2022/05/13 06:21:31;;;;;;;3.60;2.05;;;;;;;24.13;39.43;100048.91;5091413;28;20122;-81
2022/05/13 06:23:57;;;;;;;2.75;1.70;;;;;;;23.67;40.35;100057.25;5109921;28;20088;-82
2022/05/13 06:26:23;;;;;;;5.07;1.98;;;;;;;23.70;39.41;100006.75;5110540;28;20444;-85
2022/05/13 06:28:48;;;;;;;2.90;1.33;;;;;;;24.58;39.47;100079.19;5110150;28;20028;-83
2022/05/13 06:31:16;;;;;;;3.88;1.50;;;;;;;24.49;38.64;100036.63;5110611;28;20027;-85
2022/05/13 06:33:42;;;;;;;1.40;1.05;;;;;;;25.04;38.01;100040.09;5090132;28;20028;-82
2022/05/13 06:36:08;;;;;;;3.35;1.55;;;;;;;25.47;37.05;100045.19;5093600;28;20565;-82
2022/05/13 06:38:33;;;;;;;2.83;1.83;;;;;;;25.33;38.59;100043.47;5089389;28;20097;-82
2022/05/13 06:40:59;;;;;;;3.80;2.90;;;;;;;25.68;38.08;100023.00;5090074;28;20040;-83
2022/05/13 06:43:25;;;;;;;5.20;2.88;;;;;;;26.26;36.91;100043.03;5089726;28;20525;-83
2022/05/13 06:45:50;;;;;;;2.42;1.50;;;;;;;26.18;35.51;100031.94;5089985;28;20607;-85
2022/05/13 06:48:16;;;;;;;3.58;2.03;;;;;;;25.69;35.63;100039.09;5089554;28;20028;-82
2022/05/13 06:50:43;;;;;;;2.33;1.67;;;;;;;25.27;37.37;100037.59;5089489;28;20409;-82
2022/05/13 06:53:09;;;;;;;3.35;2.47;;;;;;;25.65;36.90;100025.91;5089313;28;20032;-84
2022/05/13 06:55:35;;;;;;;3.75;2.72;;;;;;;26.80;34.36;100047.09;5089758;28;20472;-83
2022/05/13 06:58:01;;;;;;;3.63;2.60;;;;;;;26.47;34.66;100041.53;5089849;28;20028;-83
2022/05/13 07:00:26;;;;;;;3.20;2.03;;;;;;;26.38;35.39;99995.25;5089378;28;20573;-83
2022/05/13 07:02:52;;;;;;;3.50;1.45;;;;;;;26.41;34.76;99994.16;5089438;28;20032;-84
2022/05/13 07:05:20;;;;;;;2.45;1.65;;;;;;;26.85;33.79;100027.78;5089160;28;20039;-82
2022/05/13 07:07:46;;;;;;;3.72;2.25;;;;;;;26.92;33.36;100001.94;5089227;28;20046;-83
2022/05/13 07:10:12;;;;;;;10.60;2.80;;;;;;;26.99;33.95;100002.34;5089404;28;20040;-83
2022/05/13 07:12:38;;;;;;;6.18;3.38;;;;;;;27.21;33.31;100001.50;5070709;28;20477;-85
2022/05/13 07:15:07;;;;;;;4.28;2.22;;;;;;;27.49;35.18;100032.66;5089227;28;20040;-84
2022/05/13 07:17:32;;;;;;;4.35;2.40;;;;;;;27.83;35.27;100029.91;5088708;28;20025;-83
2022/05/13 07:19:58;;;;;;;3.35;1.88;;;;;;;28.05;32.54;100020.03;5088237;28;20313;-83
2022/05/13 07:22:23;;;;;;;6.03;1.75;;;;;;;27.82;34.18;100009.25;5088223;28;20446;-83
2022/05/13 07:24:51;;;;;;;4.20;2.15;;;;;;;27.80;33.86;100023.88;5070465;28;20048;-83
2022/05/13 07:27:16;;;;;;;3.85;2.00;;;;;;;27.78;33.18;100020.47;5088525;28;20028;-83
2022/05/13 07:29:42;;;;;;;2.85;2.05;;;;;;;28.05;32.75;100011.91;5089665;28;20440;-82
2022/05/13 07:32:08;;;;;;;2.78;1.90;;;;;;;27.68;33.89;100012.19;5092578;28;20473;-84
2022/05/13 07:34:34;;;;;;;3.90;1.92;;;;;;;28.45;33.33;100023.97;5090646;28;20024;-83
2022/05/13 07:36:59;;;;;;;3.65;2.47;;;;;;;28.22;32.44;100011.38;5088717;28;20107;-82
2022/05/13 07:42:10;;;;;;;11.05;3.17;;;;;;;28.23;32.98;99993.25;5088072;28;20509;-82
2022/05/13 07:44:37;;;;;;;6.45;2.65;;;;;;;28.80;33.59;100018.28;5088294;28;20126;-83
2022/05/13 07:47:04;;;;;;;2.78;1.83;;;;;;;28.81;32.36;100000.13;5087655;28;20039;-84
2022/05/13 07:49:30;;;;;;;2.72;1.83;;;;;;;28.98;31.90;100018.53;5069790;28;20028;-82
2022/05/13 07:51:56;;;;;;;5.55;2.50;;;;;;;28.65;31.42;99978.88;5087681;28;20043;-83
2022/05/13 07:54:22;;;;;;;4.13;1.88;;;;;;;28.91;29.43;99996.47;5088039;28;20048;-85
2022/05/13 07:56:48;;;;;;;3.15;2.30;;;;;;;29.10;30.05;100013.88;5108284;28;20799;-83
2022/05/13 07:59:14;;;;;;;13.90;1.90;;;;;;;28.40;31.73;99978.25;5090114;28;20489;-84
2022/05/13 08:01:39;;;;;;;6.15;2.58;;;;;;;28.87;31.93;100007.72;5108055;28;20034;-83
2022/05/13 08:04:05;;;;;;;5.95;1.85;;;;;;;28.46;32.58;99966.88;5108162;28;20034;-83
2022/05/13 08:06:32;;;;;;;2.58;1.25;;;;;;;29.17;30.99;99962.59;5104406;28;20429;-82
2022/05/13 08:08:58;;;;;;;2.97;1.70;;;;;;;29.22;31.00;99958.50;5088023;28;20032;-83
2022/05/13 08:11:26;;;;;;;2.80;1.58;;;;;;;29.46;31.15;99979.91;5087956;28;20036;-83
2022/05/13 08:13:52;;;;;;;3.30;1.88;;;;;;;29.41;30.69;99968.59;5087865;28;20031;-83
2022/05/13 08:16:21;;;;;;;2.38;1.98;;;;;;;29.08;31.35;99956.97;5087728;28;20036;-83
2022/05/13 08:18:47;;;;;;;3.35;1.45;;;;;;;29.02;30.67;99956.66;5087792;28;20039;-83
2022/05/13 08:21:13;;;;;;;3.50;1.70;;;;;;;29.10;30.22;99968.59;5087750;28;20071;-82
2022/05/13 08:23:40;;;;;;;3.90;2.47;;;;;;;29.24;31.39;99974.66;5088145;28;20032;-83
2022/05/13 08:26:07;;;;;;;2.08;1.70;;;;;;;29.02;31.74;99949.38;5087697;28;20077;-82
2022/05/13 08:28:33;;;;;;;3.30;2.20;;;;;;;29.73;30.69;99991.97;5087363;28;20031;-83
2022/05/13 08:30:59;;;;;;;2.45;1.90;;;;;;;29.96;30.12;99970.88;5087271;28;20032;-83
2022/05/13 08:33:25;;;;;;;2.97;1.95;;;;;;;29.48;29.65;99987.91;5087703;28;20031;-82
2022/05/13 08:35:54;;;;;;;2.60;1.13;;;;;;;29.61;29.71;99969.50;5090505;28;20118;-81
2022/05/13 08:38:22;;;;;;;3.40;1.70;;;;;;;29.94;29.65;99975.59;5088541;28;20039;-82
2022/05/13 08:40:52;;;;;;;2.08;1.10;;;;;;;30.16;28.70;99979.91;5087315;28;20036;-83
2022/05/13 08:43:39;;;;;;;4.20;1.95;;;;;;;29.78;30.26;99967.09;5087279;28;20043;-82
2022/05/13 08:46:09;;;;;;;5.75;1.63;;;;;;;29.92;31.83;99972.19;5087566;28;20044;-83
2022/05/13 08:49:00;;;;;;;3.17;1.75;;;;;;;29.86;30.55;99960.97;5068859;28;20478;-82
2022/05/13 08:55:10;;;;;;;2.42;1.40;;;;;;;29.89;30.86;99945.28;5024981;28;20168;-83
2022/05/13 08:57:40;;;;;;;1.77;1.23;;;;;;;29.72;30.34;99925.03;5024313;28;20076;-83
2022/05/13 09:00:16;;;;;;;5.03;2.35;;;;;;;30.09;30.59;99939.81;5072639;28;20042;-82
2022/05/13 09:02:50;;;;;;;4.10;1.40;;;;;;;29.18;31.06;99915.41;5087159;28;20024;-83
2022/05/13 09:05:28;;;;;;;2.90;1.58;;;;;;;29.60;30.04;99932.44;5069274;28;20055;-82
2022/05/13 09:07:55;;;;;;;2.60;1.63;;;;;;;29.67;32.21;99932.75;5086740;28;20024;-82
2022/05/13 09:10:21;;;;;;;1.98;1.58;;;;;;;29.59;29.83;99917.13;5086949;28;20032;-84
2022/05/13 09:13:23;;;;;;;3.85;2.13;;;;;;;29.79;33.22;99934.31;5086622;28;20036;-83
2022/05/13 09:15:52;;;;;;;3.17;1.98;;;;;;;29.74;30.91;99941.22;5086300;28;20028;-83
2022/05/13 09:18:24;;;;;;;2.10;1.58;;;;;;;29.58;30.54;99910.00;5086664;28;20040;-82
2022/05/13 09:20:55;;;;;;;3.22;1.83;;;;;;;29.43;30.10;99901.38;5086474;28;20032;-83
2022/05/13 09:23:20;;;;;;;2.15;1.20;;;;;;;29.70;31.47;99905.28;5086768;28;20114;-83
2022/05/13 09:25:53;;;;;;;1.45;1.23;;;;;;;30.12;30.96;99923.22;5089136;28;20111;-82
2022/05/13 09:28:19;;;;;;;2.65;1.75;;;;;;;29.39;30.59;99867.34;5086748;28;20070;-82
2022/05/13 09:30:48;;;;;;;2.65;1.38;;;;;;;29.67;31.85;99891.97;5086708;28;20063;-82
2022/05/13 09:33:23;;;;;;;2.78;1.73;;;;;;;29.93;32.48;99910.50;5086710;28;20035;-83
2022/05/13 09:35:53;;;;;;;3.90;2.22;;;;;;;29.87;30.96;99878.44;5090144;28;20032;-83
2022/05/13 09:38:24;;;;;;;2.80;1.95;;;;;;;29.68;30.43;99882.81;5107032;28;20035;-84
2022/05/13 09:41:08;;;;;;;2.00;1.60;;;;;;;29.77;31.11;99878.41;5105655;28;20146;-83
2022/05/13 09:43:36;;;;;;;1.98;1.13;;;;;;;30.16;31.18;99902.91;5108663;28;20513;-82
2022/05/13 09:46:05;;;;;;;3.42;2.78;;;;;;;29.78;30.51;99875.56;5091729;28;20044;-84
2022/05/13 09:48:34;;;;;;;2.65;1.25;;;;;;;29.85;29.83;99883.16;5090202;28;20038;-82
2022/05/13 09:51:23;;;;;;;1.80;1.42;;;;;;;29.76;31.30;99827.75;5090187;28;20036;-82
2022/05/13 09:54:08;;;;;;;5.72;2.70;;;;;;;29.86;30.92;99858.56;5094165;28;20063;-82
2022/05/13 09:56:41;;;;;;;1.58;1.48;;;;;;;29.84;32.25;99876.00;5092988;28;20032;-82
2022/05/13 09:59:21;;;;;;;3.47;1.95;;;;;;;29.81;30.51;99864.41;5089444;28;20032;-84
2022/05/13 10:01:47;;;;;;;2.65;1.15;;;;;;;29.34;30.02;99837.03;5092524;28;20572;-83
2022/05/13 10:04:26;;;;;;;2.30;1.42;;;;;;;29.33;31.68;99829.00;5102101;28;20039;-82
2022/05/13 10:07:04;;;;;;;1.95;1.40;;;;;;;29.75;32.10;99837.78;5110098;28;20028;-82
2022/05/13 10:15:34;;;;;;;2.85;1.70;;;;;;;29.31;32.09;99823.72;5104076;28;20382;-83
2022/05/13 10:18:26;;;;;;;1.70;1.42;;;;;;;29.88;31.79;99840.22;5097220;28;20043;-82
2022/05/13 10:20:58;;;;;;;2.55;1.73;;;;;;;29.40;30.33;99798.44;5090890;28;20028;-83
2022/05/13 10:23:49;;;;;;;2.53;1.30;;;;;;;29.46;29.73;99835.91;5090028;28;20043;-82
2022/05/13 10:26:19;;;;;;;1.70;1.27;;;;;;;30.25;29.85;99825.84;5090581;28;20121;-83
2022/05/13 10:28:57;;;;;;;2.03;1.30;;;;;;;30.45;31.03;99804.94;5089950;28;20032;-82
2022/05/13 10:31:27;;;;;;;1.92;1.20;;;;;;;30.72;30.72;99816.84;5089628;28;20039;-82
2022/05/13 10:34:30;;;;;;;1.85;1.20;;;;;;;30.53;29.96;99815.06;5089814;28;20106;-82
2022/05/13 10:37:01;;;;;;;1.98;1.73;;;;;;;30.36;29.12;99812.06;5089234;28;20032;-82
2022/05/13 10:39:44;;;;;;;1.95;1.65;;;;;;;30.08;27.58;99803.00;5089582;28;20028;-82
2022/05/13 10:42:32;;;;;;;1.67;1.08;;;;;;;30.65;27.54;99800.25;5089258;28;20082;-83
2022/05/13 10:45:10;;;;;;;2.15;1.35;;;;;;;30.70;28.86;99802.53;5079673;28;20044;-82
2022/05/13 10:47:46;;;;;;;2.13;1.05;;;;;;;30.57;28.45;99783.84;5071460;28;20036;-82
2022/05/13 10:50:20;;;;;;;3.85;1.75;;;;;;;30.88;28.41;99773.50;5089321;28;20032;-82
2022/05/13 10:53:05;;;;;;;1.27;0.80;;;;;;;30.73;27.91;99788.63;5089275;28;20040;-83
2022/05/13 10:56:04;;;;;;;2.17;1.35;;;;;;;30.70;27.13;99776.16;5089171;28;20656;-83
2022/05/13 10:58:49;;;;;;;1.92;0.98;;;;;;;31.06;27.42;99773.56;5088972;28;20089;-83
2022/05/13 11:01:51;;;;;;;10.25;3.55;;;;;;;30.29;28.14;99772.88;5089147;28;20138;-83
2022/05/13 11:05:08;;;;;;;2.65;1.40;;;;;;;30.28;27.92;99765.72;5089062;28;20036;-82
2022/05/13 11:07:46;;;;;;;2.70;1.10;;;;;;;30.51;28.10;99754.50;5063213;28;20780;-83
2022/05/13 11:10:24;;;;;;;2.08;1.08;;;;;;;29.78;28.32;99714.28;5070463;28;20079;-83
2022/05/13 11:13:07;;;;;;;2.90;1.73;;;;;;;29.96;28.00;99725.31;5088952;28;20413;-83
2022/05/13 11:15:41;;;;;;;1.48;1.13;;;;;;;30.03;28.59;99728.28;5088966;28;20413;-83
2022/05/13 11:18:27;;;;;;;2.00;1.17;;;;;;;30.00;28.34;99729.47;5089090;28;20039;-83
2022/05/13 11:21:09;;;;;;;1.95;1.42;;;;;;;30.22;27.42;99747.28;5088786;28;20081;-82
2022/05/13 11:27:08;;;;;;;2.30;1.13;;;;;;;30.74;27.32;99735.03;5088791;28;20151;-84
2022/05/13 11:29:46;;;;;;;1.92;1.02;;;;;;;30.48;28.13;99706.66;5088971;28;20089;-83
2022/05/13 11:32:36;;;;;;;1.30;1.05;;;;;;;30.15;29.64;99697.19;5088488;28;20085;-82
2022/05/13 11:35:07;;;;;;;7.25;1.58;;;;;;;29.86;29.16;99702.72;5088588;28;20024;-81
2022/05/13 11:37:38;;;;;;;1.50;1.20;;;;;;;29.80;28.67;99702.31;5087937;28;20567;-82
2022/05/13 11:40:33;;;;;;;2.42;1.25;;;;;;;30.30;28.01;99717.44;5088083;28;20032;-82
2022/05/13 11:43:26;;;;;;;1.95;1.45;;;;;;;30.28;27.88;99718.63;5088494;28;20417;-82
2022/05/13 11:46:05;;;;;;;3.83;1.50;;;;;;;30.67;28.17;99691.22;5087664;28;20908;-82
2022/05/13 11:48:42;;;;;;;3.50;1.58;;;;;;;30.25;26.96;99664.53;5087981;28;20031;-82
2022/05/13 11:51:28;;;;;;;4.93;2.35;;;;;;;30.43;27.32;99717.16;5087843;28;20032;-82
2022/05/13 11:53:59;;;;;;;2.70;1.73;;;;;;;30.20;27.41;99704.91;5081471;28;20538;-84
2022/05/13 11:56:32;;;;;;;2.00;1.45;;;;;;;30.08;27.06;99687.94;5108174;28;20036;-83
2022/05/13 11:59:03;;;;;;;1.63;1.20;;;;;;;30.25;26.76;99700.72;5108186;28;20051;-83
2022/05/13 12:01:37;;;;;;;1.73;1.02;;;;;;;30.25;26.04;99694.44;5108472;28;20043;-84
2022/05/13 12:04:27;;;;;;;2.35;0.88;;;;;;;30.56;25.91;99691.44;5108023;28;20496;-82
2022/05/13 12:06:58;;;;;;;2.53;1.13;;;;;;;30.73;24.67;99687.91;5095383;28;20044;-83
2022/05/13 12:09:36;;;;;;;0.60;0.60;;;;;;;31.04;24.77;99657.59;5088147;28;20035;-82
2022/05/13 12:12:05;;;;;;;3.72;1.80;;;;;;;31.34;25.94;99666.38;5087467;28;20042;-83
2022/05/13 12:15:12;;;;;;;1.88;1.35;;;;;;;30.79;27.81;99653.78;5088253;28;20126;-83
2022/05/13 12:17:58;;;;;;;2.50;1.42;;;;;;;29.78;28.12;99641.78;5046017;28;20067;-82